Time;durP1;ratioP1;P1;durP2;ratioP2;P2;SDS_P1;SDS_P2;PMS_P1;PMS_P2;Temp;Humidity;BMP_temperature;BMP_pressure;BME280_temperature;BME280_humidity;BME280_pressure;Samples;Min_cycle;Max_cycle;Signal;HPM_P1;HPM_P2
2021/03/26 00:01:43;;;;;;;2.28;1.30;;;23.30;29.70;;;;;;5012502;28;20389;-64
2021/03/26 00:04:11;;;;;;;2.17;1.33;;;23.30;29.60;;;;;;5011412;28;21068;-66
2021/03/26 00:06:41;;;;;;;1.70;1.20;;;23.20;29.40;;;;;;5012299;28;20416;-63
2021/03/26 00:09:10;;;;;;;1.90;1.23;;;23.20;29.40;;;;;;5012366;28;20460;-67
2021/03/26 00:11:36;;;;;;;2.05;1.25;;;23.20;29.50;;;;;;5012211;28;20396;-61
2021/03/26 00:14:03;;;;;;;2.20;1.40;;;23.20;29.50;;;;;;5011740;28;20936;-67
2021/03/26 00:16:28;;;;;;;2.40;1.38;;;23.20;29.50;;;;;;5012237;28;20421;-68
2021/03/26 00:18:54;;;;;;;1.77;1.30;;;23.20;29.40;;;;;;5012310;28;20425;-67
2021/03/26 00:21:22;;;;;;;1.83;1.30;;;23.20;29.50;;;;;;5012127;28;20393;-65
2021/03/26 00:23:48;;;;;;;2.50;1.30;;;23.20;29.50;;;;;;5012069;28;20389;-67
2021/03/26 00:26:14;;;;;;;2.10;1.25;;;23.20;29.50;;;;;;5011733;28;20796;-67
2021/03/26 00:28:39;;;;;;;1.67;1.27;;;23.10;29.40;;;;;;5012179;28;20389;-67
2021/03/26 00:31:05;;;;;;;2.00;1.17;;;23.10;29.40;;;;;;5011686;28;21052;-68
2021/03/26 00:33:32;;;;;;;2.38;1.30;;;23.10;29.50;;;;;;5011550;28;20415;-67
2021/03/26 00:35:57;;;;;;;1.52;1.10;;;23.10;29.50;;;;;;5011457;28;20400;-67
2021/03/26 00:38:24;;;;;;;2.23;1.40;;;23.10;29.50;;;;;;5011926;28;20932;-67
2021/03/26 00:40:51;;;;;;;1.80;1.10;;;23.10;29.50;;;;;;5011747;28;20388;-68
2021/03/26 00:43:17;;;;;;;2.72;1.10;;;23.10;29.40;;;;;;5011867;28;20389;-68
2021/03/26 00:45:42;;;;;;;1.95;1.10;;;23.10;29.40;;;;;;5011625;28;20816;-67
2021/03/26 00:48:10;;;;;;;1.50;1.15;;;23.10;29.40;;;;;;5011306;28;20396;-66
2021/03/26 00:50:42;;;;;;;1.52;1.02;;;23.10;29.40;;;;;;5011688;28;20928;-67
2021/03/26 00:53:12;;;;;;;1.40;1.08;;;23.10;29.40;;;;;;5011731;28;20391;-68
2021/03/26 00:55:38;;;;;;;1.70;1.10;;;23.10;29.40;;;;;;5011674;28;20503;-67
2021/03/26 00:58:04;;;;;;;2.08;1.08;;;23.10;29.80;;;;;;5011232;28;20468;-66
2021/03/26 01:00:31;;;;;;;2.20;1.23;;;23.10;29.40;;;;;;5011685;28;20416;-67
2021/03/26 01:02:56;;;;;;;1.50;1.10;;;23.10;29.40;;;;;;5011731;28;20408;-66
2021/03/26 01:05:31;;;;;;;1.60;1.10;;;23.10;29.40;;;;;;5005914;28;20429;-67
2021/03/26 01:07:57;;;;;;;1.50;1.10;;;23.10;29.40;;;;;;5011248;28;20920;-67
2021/03/26 01:10:30;;;;;;;1.85;1.15;;;23.00;29.40;;;;;;5011626;28;20405;-61
2021/03/26 01:12:56;;;;;;;2.38;1.30;;;23.00;29.40;;;;;;5010323;28;20762;-67
2021/03/26 01:15:25;;;;;;;1.73;1.13;;;23.00;29.40;;;;;;5011382;28;20741;-65
2021/03/26 01:17:51;;;;;;;1.50;1.00;;;23.00;29.40;;;;;;5011454;28;20475;-60
2021/03/26 01:20:22;;;;;;;1.63;1.00;;;23.00;29.30;;;;;;5011255;28;20865;-67
2021/03/26 01:22:47;;;;;;;1.58;0.98;;;23.00;29.30;;;;;;5011453;28;20451;-67
2021/03/26 01:25:32;;;;;;;1.87;1.10;;;23.00;29.30;;;;;;5011359;28;20812;-67
2021/03/26 01:27:57;;;;;;;1.50;1.00;;;23.00;29.40;;;;;;5009982;28;20750;-67
2021/03/26 01:30:24;;;;;;;1.40;0.93;;;23.00;29.50;;;;;;5011138;28;20399;-68
2021/03/26 01:32:51;;;;;;;1.50;1.10;;;23.00;29.50;;;;;;5011250;28;20397;-66
2021/03/26 01:35:19;;;;;;;1.40;0.95;;;23.00;29.40;;;;;;5010971;28;20920;-65
2021/03/26 01:37:44;;;;;;;1.60;0.90;;;23.00;29.40;;;;;;5011376;28;20463;-67
2021/03/26 01:40:16;;;;;;;1.60;1.10;;;23.00;29.40;;;;;;5010837;28;20487;-67
2021/03/26 01:42:42;;;;;;;1.45;1.00;;;23.00;29.40;;;;;;5012853;28;20425;-67
2021/03/26 01:45:12;;;;;;;1.45;1.00;;;23.00;29.40;;;;;;5013730;28;20904;-68
2021/03/26 01:47:38;;;;;;;1.95;1.23;;;23.00;29.30;;;;;;5014856;28;20880;-63
2021/03/26 01:50:07;;;;;;;1.58;0.98;;;22.90;29.30;;;;;;5014458;28;20397;-65
2021/03/26 01:52:33;;;;;;;1.60;1.00;;;22.90;29.30;;;;;;5014733;28;20865;-67
2021/03/26 01:54:58;;;;;;;1.50;0.90;;;22.90;29.30;;;;;;5014816;28;20420;-66
2021/03/26 01:57:24;;;;;;;1.83;1.05;;;22.90;29.30;;;;;;5014960;28;20860;-66
2021/03/26 01:59:50;;;;;;;2.40;1.20;;;22.90;29.40;;;;;;5014775;28;20951;-65
2021/03/26 02:02:21;;;;;;;1.35;1.10;;;22.90;29.30;;;;;;5014321;28;20438;-64
2021/03/26 02:04:48;;;;;;;1.70;1.00;;;22.90;29.30;;;;;;5014610;28;20400;-63
2021/03/26 02:07:16;;;;;;;1.30;0.90;;;22.90;29.30;;;;;;5014658;28;20388;-65
2021/03/26 02:09:42;;;;;;;1.35;0.98;;;22.90;29.40;;;;;;5014635;28;20460;-66
2021/03/26 02:12:15;;;;;;;1.23;0.80;;;22.90;29.40;;;;;;5014077;28;20389;-65
2021/03/26 02:14:50;;;;;;;1.95;1.05;;;22.90;29.40;;;;;;5014514;28;20809;-66
2021/03/26 02:17:19;;;;;;;1.45;1.00;;;22.90;29.40;;;;;;5014571;28;20397;-63
2021/03/26 02:19:48;;;;;;;1.50;1.00;;;22.90;29.40;;;;;;5014427;28;20385;-67
2021/03/26 02:22:15;;;;;;;1.35;0.80;;;22.90;29.40;;;;;;5013459;28;20714;-68
2021/03/26 02:24:43;;;;;;;1.50;0.90;;;22.90;29.40;;;;;;5013924;28;20417;-67
2021/03/26 02:27:16;;;;;;;1.60;1.02;;;22.90;29.40;;;;;;5014261;28;20476;-65
2021/03/26 02:29:42;;;;;;;1.90;0.82;;;22.80;29.30;;;;;;5014205;28;20972;-64
2021/03/26 02:32:29;;;;;;;1.77;1.00;;;22.80;29.80;;;;;;5013581;28;20404;-67
2021/03/26 02:35:14;;;;;;;1.35;0.90;;;22.80;29.30;;;;;;5014124;28;20399;-64
2021/03/26 02:37:53;;;;;;;1.60;1.00;;;22.80;29.40;;;;;;5013723;28;20464;-67
2021/03/26 02:40:31;;;;;;;1.60;1.05;;;22.80;29.30;;;;;;5013609;28;20908;-66
2021/03/26 02:43:18;;;;;;;1.52;1.10;;;22.80;29.30;;;;;;5013975;28;20804;-63
2021/03/26 02:46:01;;;;;;;1.55;1.05;;;22.80;29.30;;;;;;5013809;28;20417;-64
2021/03/26 02:48:47;;;;;;;2.15;1.00;;;22.80;29.30;;;;;;5013664;28;20446;-65
2021/03/26 02:51:32;;;;;;;1.27;0.80;;;22.80;29.30;;;;;;5013955;28;20568;-67
2021/03/26 02:54:05;;;;;;;1.20;0.80;;;22.70;29.30;;;;;;5013305;28;20745;-68
2021/03/26 02:56:38;;;;;;;1.83;1.00;;;22.70;29.30;;;;;;5013699;28;20896;-65
2021/03/26 02:59:11;;;;;;;1.67;1.00;;;22.70;29.30;;;;;;5013764;28;20397;-67
2021/03/26 03:01:42;;;;;;;1.70;1.02;;;22.70;29.30;;;;;;5013638;28;20385;-62
2021/03/26 03:04:30;;;;;;;1.67;0.93;;;22.70;29.30;;;;;;5013155;28;20409;-65
2021/03/26 03:07:08;;;;;;;1.30;0.90;;;22.70;29.30;;;;;;5013304;28;20893;-66
2021/03/26 03:09:37;;;;;;;1.40;0.90;;;22.70;29.30;;;;;;5013632;28;20389;-64
2021/03/26 03:12:08;;;;;;;1.33;0.90;;;22.70;29.30;;;;;;5013228;28;20878;-62
2021/03/26 03:14:45;;;;;;;1.50;0.82;;;22.70;29.30;;;;;;5013379;28;20491;-65
2021/03/26 03:17:48;;;;;;;1.40;0.90;;;22.70;29.20;;;;;;5013418;28;20757;-63
2021/03/26 03:20:27;;;;;;;1.92;0.90;;;22.70;29.20;;;;;;5030433;28;20417;-64
2021/03/26 03:23:13;;;;;;;1.55;0.90;;;22.70;29.20;;;;;;5015208;28;20407;-66
2021/03/26 03:25:39;;;;;;;1.85;1.00;;;22.70;29.30;;;;;;5013048;28;20947;-66
2021/03/26 03:28:28;;;;;;;1.10;0.77;;;22.70;29.30;;;;;;5011535;28;20432;-60
2021/03/26 03:31:05;;;;;;;1.30;0.90;;;22.60;29.30;;;;;;5013155;28;20397;-63
2021/03/26 03:34:00;;;;;;;1.20;0.80;;;22.70;29.30;;;;;;5012796;28;20404;-66
2021/03/26 03:36:39;;;;;;;1.30;0.80;;;22.60;29.30;;;;;;5012838;28;20446;-67
2021/03/26 03:39:14;;;;;;;1.35;0.80;;;22.60;29.30;;;;;;5012466;28;20392;-63
2021/03/26 03:41:50;;;;;;;1.50;0.80;;;22.60;29.30;;;;;;5012678;28;20420;-66
2021/03/26 03:44:21;;;;;;;1.30;0.70;;;22.60;29.30;;;;;;5012271;28;20425;-64
2021/03/26 03:46:57;;;;;;;1.13;0.85;;;22.70;29.30;;;;;;5013092;28;20409;-61
2021/03/26 03:49:37;;;;;;;1.33;0.80;;;22.60;29.30;;;;;;5012997;28;20397;-61
2021/03/26 03:52:16;;;;;;;1.25;0.90;;;22.70;29.30;;;;;;5012453;28;20392;-63
2021/03/26 03:55:11;;;;;;;1.20;0.75;;;22.60;29.30;;;;;;5012545;28;20397;-60
2021/03/26 03:57:47;;;;;;;1.10;0.70;;;22.60;29.30;;;;;;5012709;28;20466;-61
2021/03/26 04:00:21;;;;;;;1.58;0.80;;;22.60;29.30;;;;;;5012193;28;20896;-60
2021/03/26 04:03:11;;;;;;;1.25;0.88;;;22.60;29.30;;;;;;5012493;28;20393;-63
2021/03/26 04:06:15;;;;;;;1.10;0.70;;;22.60;29.30;;;;;;5011825;28;20420;-62
2021/03/26 04:08:45;;;;;;;1.23;0.80;;;22.60;29.30;;;;;;5029848;28;20431;-60
2021/03/26 04:11:26;;;;;;;2.08;0.90;;;22.60;29.40;;;;;;5015549;28;20404;-61
2021/03/26 04:14:18;;;;;;;2.08;1.00;;;22.60;29.60;;;;;;5012539;28;20389;-62
2021/03/26 04:16:49;;;;;;;1.40;0.80;;;22.50;29.60;;;;;;5012284;28;20757;-60
2021/03/26 04:19:20;;;;;;;2.10;1.00;;;22.60;29.60;;;;;;5010397;28;20393;-66
2021/03/26 04:21:48;;;;;;;2.30;1.07;;;22.50;29.70;;;;;;5007685;28;21026;-67
2021/03/26 04:24:41;;;;;;;1.10;0.80;;;22.50;30.00;;;;;;4996380;28;20393;-64
2021/03/26 04:27:29;;;;;;;3.53;1.00;;;22.50;29.90;;;;;;4993472;28;20430;-60
2021/03/26 04:30:04;;;;;;;3.03;1.00;;;22.50;30.10;;;;;;4992406;28;20394;-60
2021/03/26 04:32:30;;;;;;;1.93;0.80;;;22.60;30.90;;;;;;4991992;28;20459;-60
2021/03/26 04:34:56;;;;;;;2.15;0.80;;;22.50;30.50;;;;;;4992427;28;20942;-60
2021/03/26 04:37:31;;;;;;;2.92;0.82;;;22.50;30.80;;;;;;4992223;28;20800;-61
2021/03/26 04:40:27;;;;;;;4.45;0.98;;;22.50;31.50;;;;;;4992205;28;20407;-60
2021/03/26 04:43:13;;;;;;;3.50;0.87;;;22.60;32.40;;;;;;4991954;28;20418;-66
2021/03/26 04:46:04;;;;;;;2.92;0.90;;;22.60;30.90;;;;;;4991845;28;20953;-60
2021/03/26 04:48:37;;;;;;;2.55;1.10;;;22.60;31.10;;;;;;4991718;28;20398;-60
2021/03/26 04:51:18;;;;;;;2.17;0.90;;;22.50;31.30;;;;;;4991917;28;20410;-60
2021/03/26 04:54:16;;;;;;;3.55;1.20;;;22.50;31.00;;;;;;4991977;28;20447;-60
2021/03/26 04:56:58;;;;;;;2.60;1.00;;;22.60;31.40;;;;;;5000666;28;20867;-60
2021/03/26 04:59:31;;;;;;;3.75;1.00;;;22.50;31.10;;;;;;4992102;28;20456;-60
2021/03/26 05:02:00;;;;;;;3.28;1.00;;;22.50;31.30;;;;;;4991963;28;20947;-60
2021/03/26 05:04:34;;;;;;;4.65;1.10;;;22.50;31.50;;;;;;4991581;28;20410;-60
2021/03/26 05:07:03;;;;;;;2.20;1.00;;;22.50;31.20;;;;;;4991246;28;20453;-60
2021/03/26 05:09:35;;;;;;;3.42;1.00;;;22.50;31.00;;;;;;4991098;28;20387;-61
2021/03/26 05:12:26;;;;;;;2.88;1.00;;;22.50;30.70;;;;;;4991690;28;20410;-60
2021/03/26 05:14:57;;;;;;;3.28;0.93;;;22.50;30.90;;;;;;4993640;28;20407;-61
2021/03/26 05:17:39;;;;;;;3.20;0.70;;;22.50;30.40;;;;;;4994951;28;20950;-60
2021/03/26 05:20:10;;;;;;;2.30;1.00;;;22.50;30.70;;;;;;4995751;28;20418;-61
2021/03/26 05:23:24;;;;;;;1.60;0.88;;;22.60;30.20;;;;;;4995090;28;20398;-60
2021/03/26 05:25:55;;;;;;;3.63;1.00;;;22.60;30.10;;;;;;5005051;28;20454;-60
2021/03/26 05:28:24;;;;;;;3.70;1.20;;;22.60;30.00;;;;;;4995346;28;20404;-60
2021/03/26 05:30:51;;;;;;;2.35;0.90;;;22.60;29.90;;;;;;4999833;28;20412;-61
2021/03/26 05:33:16;;;;;;;2.10;0.80;;;22.60;29.80;;;;;;5012868;28;20799;-60
2021/03/26 05:36:17;;;;;;;1.93;0.90;;;22.60;29.80;;;;;;5014545;28;20476;-60
2021/03/26 05:39:12;;;;;;;3.78;1.10;;;22.60;29.70;;;;;;4980549;28;20869;-60
2021/03/26 05:41:55;;;;;;;2.70;1.20;;;22.60;29.60;;;;;;5015038;28;20388;-60
2021/03/26 05:44:37;;;;;;;2.72;0.85;;;22.60;29.60;;;;;;5014542;28;20434;-60
2021/03/26 05:47:12;;;;;;;1.63;0.90;;;22.60;29.60;;;;;;5011355;28;20425;-60
2021/03/26 05:49:41;;;;;;;1.80;0.70;;;22.50;29.50;;;;;;5014495;28;20427;-60
2021/03/26 05:52:37;;;;;;;1.60;0.90;;;22.60;29.50;;;;;;5013239;28;20404;-60
2021/03/26 05:55:08;;;;;;;2.37;0.90;;;22.50;29.50;;;;;;5014843;28;20500;-60
2021/03/26 05:57:43;;;;;;;1.80;0.80;;;22.60;29.50;;;;;;5014471;28;20447;-63
2021/03/26 06:00:17;;;;;;;3.38;1.10;;;22.50;29.50;;;;;;5013060;28;20385;-60
2021/03/26 06:03:24;;;;;;;2.97;0.90;;;22.50;29.50;;;;;;5011925;28;20867;-66
2021/03/26 06:06:18;;;;;;;3.88;1.00;;;22.50;29.80;;;;;;5003405;28;20417;-62
2021/03/26 06:09:10;;;;;;;1.60;0.90;;;22.50;30.00;;;;;;5014629;28;20388;-65
2021/03/26 06:12:00;;;;;;;1.77;0.88;;;22.50;30.10;;;;;;5011632;28;20397;-60
2021/03/26 06:14:50;;;;;;;4.97;1.10;;;22.50;30.20;;;;;;5010503;28;20920;-60
2021/03/26 06:17:34;;;;;;;8.07;1.42;;;22.40;30.10;;;;;;5014487;28;20647;-61
2021/03/26 06:20:27;;;;;;;6.93;1.80;;;22.40;30.00;;;;;;5003825;28;20476;-60
2021/03/26 06:23:11;;;;;;;10.05;4.38;;;22.50;30.70;;;;;;5013051;28;20401;-60
2021/03/26 06:26:12;;;;;;;6.97;2.50;;;22.50;30.90;;;;;;5012830;28;20420;-60
2021/03/26 06:29:03;;;;;;;9.30;2.30;;;22.60;31.00;;;;;;4989694;28;20400;-60
2021/03/26 06:31:48;;;;;;;7.18;1.90;;;22.60;30.30;;;;;;4993681;28;20401;-60
2021/03/26 06:34:57;;;;;;;9.77;1.90;;;22.60;30.30;;;;;;5013721;28;20538;-59
2021/03/26 06:37:44;;;;;;;6.00;1.60;;;22.50;30.20;;;;;;5012876;28;20424;-60
2021/03/26 06:40:33;;;;;;;5.28;1.80;;;22.50;30.40;;;;;;5013901;28;20397;-59
2021/03/26 06:43:36;;;;;;;5.85;1.63;;;22.60;30.20;;;;;;5014088;28;20385;-60
2021/03/26 06:46:29;;;;;;;5.47;1.60;;;22.50;30.10;;;;;;5013881;28;20416;-60
2021/03/26 06:49:03;;;;;;;3.67;1.52;;;22.60;30.10;;;;;;5013933;28;20380;-61
2021/03/26 06:51:43;;;;;;;13.33;1.93;;;22.50;30.00;;;;;;5011285;28;20497;-59
2021/03/26 06:54:15;;;;;;;5.57;1.60;;;22.50;30.00;;;;;;5012984;28;20447;-60
2021/03/26 06:57:20;;;;;;;5.40;1.50;;;22.50;30.00;;;;;;5013114;28;20397;-60
2021/03/26 07:00:23;;;;;;;4.28;1.42;;;22.50;30.00;;;;;;5011766;28;20397;-59
2021/03/26 07:03:00;;;;;;;3.33;1.30;;;22.50;29.90;;;;;;5011245;28;20408;-60
2021/03/26 07:06:01;;;;;;;3.63;1.40;;;22.50;29.90;;;;;;5012398;28;21373;-60
2021/03/26 07:08:47;;;;;;;5.30;1.60;;;22.50;30.00;;;;;;5012206;28;20476;-59
2021/03/26 07:11:27;;;;;;;4.07;1.30;;;22.50;30.00;;;;;;5011888;28;20432;-60
2021/03/26 07:14:29;;;;;;;3.83;1.30;;;22.50;30.00;;;;;;5013463;28;20757;-59
2021/03/26 07:17:13;;;;;;;4.18;1.55;;;22.60;29.90;;;;;;5013633;28;20381;-59
2021/03/26 07:19:51;;;;;;;3.95;1.40;;;22.50;29.80;;;;;;5013290;28;20392;-59
2021/03/26 07:22:46;;;;;;;3.63;1.20;;;22.50;29.80;;;;;;5012813;28;20389;-60
2021/03/26 07:25:47;;;;;;;4.20;1.45;;;22.60;29.90;;;;;;5011862;28;20912;-60
2021/03/26 07:28:43;;;;;;;4.15;1.33;;;22.60;29.90;;;;;;5012938;28;20850;-59
2021/03/26 07:31:20;;;;;;;5.70;1.40;;;22.60;29.80;;;;;;5013290;28;20377;-60
2021/03/26 07:33:56;;;;;;;3.10;1.30;;;22.60;29.80;;;;;;5011624;28;20412;-60
2021/03/26 07:36:57;;;;;;;2.88;1.13;;;22.60;29.80;;;;;;5012872;28;20413;-60
2021/03/26 07:39:31;;;;;;;3.00;1.13;;;22.60;29.80;;;;;;5010993;28;20401;-60
2021/03/26 07:42:03;;;;;;;3.00;1.00;;;22.60;29.70;;;;;;5012874;28;20397;-60
2021/03/26 07:44:32;;;;;;;2.40;1.20;;;22.60;29.60;;;;;;5012244;28;20404;-60
2021/03/26 07:47:29;;;;;;;3.23;1.23;;;22.60;29.70;;;;;;5012876;28;20679;-59
2021/03/26 07:50:23;;;;;;;2.63;1.00;;;22.60;29.50;;;;;;5012766;28;20393;-60
2021/03/26 07:52:51;;;;;;;2.38;1.10;;;22.60;29.60;;;;;;5012681;28;20881;-60
2021/03/26 07:55:50;;;;;;;2.78;1.17;;;22.70;29.70;;;;;;5012681;28;20389;-60
2021/03/26 07:58:43;;;;;;;2.03;1.10;;;22.70;29.70;;;;;;5012012;28;20893;-60
2021/03/26 08:01:24;;;;;;;2.60;1.10;;;22.70;29.70;;;;;;5109462;27;20721;-59
2021/03/26 08:04:13;;;;;;;1.92;1.10;;;22.70;29.70;;;;;;5109269;28;20381;-60
2021/03/26 08:07:22;;;;;;;2.08;1.10;;;22.70;30.10;;;;;;5107550;28;20421;-60
2021/03/26 08:10:20;;;;;;;1.90;1.00;;;22.70;29.70;;;;;;5103895;28;20888;-59
2021/03/26 08:13:22;;;;;;;2.38;1.00;;;22.70;29.60;;;;;;5099394;28;20392;-59
2021/03/26 08:16:02;;;;;;;2.00;1.00;;;22.70;29.60;;;;;;5109010;28;20392;-60
2021/03/26 08:18:31;;;;;;;1.90;0.93;;;22.70;29.60;;;;;;5106917;28;20456;-60
2021/03/26 08:21:09;;;;;;;2.00;1.00;;;22.70;29.60;;;;;;5107731;28;20813;-60
2021/03/26 08:23:49;;;;;;;1.80;0.90;;;22.80;29.60;;;;;;5108897;28;20865;-60
2021/03/26 08:26:44;;;;;;;1.60;0.90;;;22.80;29.60;;;;;;5107404;28;20385;-60
2021/03/26 08:29:25;;;;;;;2.05;1.08;;;22.80;29.60;;;;;;5108880;28;20397;-60
2021/03/26 08:32:09;;;;;;;1.67;0.98;;;22.80;29.60;;;;;;5108790;28;20404;-60
2021/03/26 08:34:37;;;;;;;1.80;1.05;;;22.80;29.60;;;;;;5108296;28;20393;-59
2021/03/26 08:37:28;;;;;;;2.20;1.10;;;22.80;29.60;;;;;;5107407;28;20385;-60
2021/03/26 08:40:05;;;;;;;1.60;0.88;;;22.80;29.60;;;;;;5108574;28;20413;-60
2021/03/26 08:42:38;;;;;;;2.22;0.98;;;22.90;29.50;;;;;;5107947;28;20416;-60
2021/03/26 08:45:09;;;;;;;1.92;1.02;;;22.80;29.60;;;;;;5108562;28;20394;-60
2021/03/26 08:47:40;;;;;;;1.77;0.85;;;22.90;29.60;;;;;;5108452;28;20476;-60
2021/03/26 08:50:30;;;;;;;1.30;1.00;;;22.90;29.60;;;;;;5108404;28;20568;-60
2021/03/26 08:53:30;;;;;;;1.77;1.00;;;22.90;29.50;;;;;;5108421;28;20411;-60
2021/03/26 08:56:19;;;;;;;1.55;1.00;;;22.90;29.50;;;;;;5108333;28;20385;-59
2021/03/26 08:58:54;;;;;;;1.93;1.03;;;22.90;29.50;;;;;;5106757;28;20932;-59
2021/03/26 09:01:29;;;;;;;2.10;1.00;;;22.90;29.40;;;;;;5108286;28;20401;-60
2021/03/26 09:04:12;;;;;;;1.48;0.90;;;23.00;29.40;;;;;;5108173;28;20385;-60
2021/03/26 09:06:44;;;;;;;1.50;0.85;;;23.00;29.40;;;;;;5106370;28;20473;-60
2021/03/26 09:09:34;;;;;;;1.17;0.88;;;23.00;29.40;;;;;;5106745;28;20393;-60
2021/03/26 09:12:44;;;;;;;1.90;1.00;;;23.00;29.40;;;;;;5096732;28;20750;-60
2021/03/26 09:15:41;;;;;;;1.30;0.80;;;23.00;29.40;;;;;;5051955;28;20819;-60
2021/03/26 09:18:32;;;;;;;1.60;0.93;;;23.00;29.30;;;;;;5094363;28;20579;-60
2021/03/26 09:21:10;;;;;;;1.70;0.90;;;23.10;29.30;;;;;;5094224;28;20418;-60
2021/03/26 09:24:05;;;;;;;1.67;0.80;;;23.10;29.40;;;;;;5092944;28;20390;-60
2021/03/26 09:26:42;;;;;;;1.63;0.93;;;23.00;29.30;;;;;;5078163;28;20477;-60
2021/03/26 09:29:22;;;;;;;1.30;0.98;;;23.00;29.30;;;;;;5092862;28;20426;-60
2021/03/26 09:31:59;;;;;;;1.30;0.90;;;23.00;29.30;;;;;;5092790;28;20390;-60
2021/03/26 09:34:26;;;;;;;1.20;0.80;;;23.00;29.20;;;;;;5093653;28;20402;-60
2021/03/26 09:37:29;;;;;;;1.30;0.77;;;23.00;29.40;;;;;;5094062;28;20382;-60
2021/03/26 09:39:59;;;;;;;1.30;0.80;;;23.00;29.30;;;;;;5072006;28;20922;-60
2021/03/26 09:42:30;;;;;;;1.60;0.95;;;23.00;29.30;;;;;;5093594;28;20382;-60
2021/03/26 09:45:05;;;;;;;1.33;0.80;;;23.00;29.30;;;;;;5093937;28;20378;-60
2021/03/26 09:47:35;;;;;;;1.50;0.95;;;23.00;29.30;;;;;;5093814;28;20390;-60
2021/03/26 09:50:48;;;;;;;3.70;1.00;;;23.60;29.90;;;;;;5093585;28;20382;-59
2021/03/26 09:53:17;;;;;;;1.60;0.90;;;23.90;29.30;;;;;;5056171;28;21080;-60
2021/03/26 09:55:45;;;;;;;3.88;0.90;;;24.10;29.20;;;;;;5093548;28;20397;-60
2021/03/26 09:58:49;;;;;;;2.55;0.90;;;24.10;29.10;;;;;;5092200;28;20421;-60
2021/03/26 10:01:20;;;;;;;3.63;1.00;;;24.20;29.10;;;;;;5058550;28;20406;-60
2021/03/26 10:03:54;;;;;;;2.08;0.80;;;24.30;28.80;;;;;;5092061;28;20890;-60
2021/03/26 10:06:42;;;;;;;2.60;0.90;;;24.40;28.60;;;;;;5093106;28;20931;-60
2021/03/26 10:09:31;;;;;;;3.37;0.93;;;24.40;28.90;;;;;;5093237;28;20605;-59
2021/03/26 10:12:19;;;;;;;1.83;0.90;;;24.50;28.80;;;;;;5093168;28;20385;-59
2021/03/26 10:14:59;;;;;;;3.75;1.00;;;24.60;29.00;;;;;;5091815;28;20476;-59
2021/03/26 10:17:56;;;;;;;2.70;1.00;;;24.60;28.80;;;;;;5093209;28;20375;-60
2021/03/26 10:20:47;;;;;;;2.33;0.90;;;24.70;28.80;;;;;;5092838;28;20410;-60
2021/03/26 10:23:35;;;;;;;2.92;0.90;;;24.70;28.60;;;;;;5092156;28;20856;-60
2021/03/26 10:26:12;;;;;;;2.33;1.00;;;24.70;28.40;;;;;;5091771;28;20406;-59
2021/03/26 10:28:44;;;;;;;2.05;0.98;;;24.80;28.50;;;;;;5092541;28;20390;-60
2021/03/26 10:31:14;;;;;;;2.20;0.90;;;24.90;28.60;;;;;;5092947;28;20374;-60
2021/03/26 10:34:12;;;;;;;1.70;0.90;;;25.00;28.40;;;;;;5092924;28;20473;-59
2021/03/26 10:37:02;;;;;;;1.58;0.90;;;25.00;28.40;;;;;;5090228;28;20393;-60
2021/03/26 10:40:11;;;;;;;2.25;0.75;;;25.00;28.30;;;;;;5092555;28;20406;-59
2021/03/26 10:43:14;;;;;;;2.10;0.85;;;25.10;28.20;;;;;;5086275;28;20409;-59
2021/03/26 10:45:41;;;;;;;2.22;0.82;;;25.20;28.40;;;;;;5091113;28;20409;-59
2021/03/26 10:48:19;;;;;;;2.20;0.80;;;25.30;28.50;;;;;;5092575;28;20398;-60
2021/03/26 10:51:09;;;;;;;1.58;0.80;;;25.40;28.50;;;;;;5092293;28;20471;-60
2021/03/26 10:53:44;;;;;;;1.40;0.57;;;25.40;28.30;;;;;;5092601;28;20382;-59
2021/03/26 10:56:48;;;;;;;1.60;0.90;;;25.40;28.40;;;;;;5092516;28;20443;-59
2021/03/26 10:59:25;;;;;;;1.65;0.60;;;25.50;28.30;;;;;;5091032;28;20414;-60
2021/03/26 11:01:54;;;;;;;2.20;0.80;;;25.60;28.20;;;;;;5092488;28;20386;-59
2021/03/26 11:04:34;;;;;;;1.08;0.68;;;25.60;28.20;;;;;;5092441;28;20862;-61
2021/03/26 11:07:24;;;;;;;1.77;0.80;;;25.70;28.20;;;;;;5091934;28;20472;-60
2021/03/26 11:09:59;;;;;;;1.40;0.80;;;25.80;28.10;;;;;;5092428;28;20433;-60
2021/03/26 11:12:42;;;;;;;1.93;0.70;;;25.80;28.10;;;;;;5091999;28;20456;-61
2021/03/26 11:15:12;;;;;;;2.22;0.90;;;25.90;28.00;;;;;;5091608;28;20905;-61
2021/03/26 11:18:02;;;;;;;1.30;0.80;;;25.90;27.50;;;;;;5090313;28;20390;-64
2021/03/26 11:20:37;;;;;;;1.42;0.80;;;25.90;27.30;;;;;;5090455;28;20417;-60
2021/03/26 11:23:14;;;;;;;2.15;0.85;;;26.00;27.40;;;;;;5090735;28;20805;-63
2021/03/26 11:25:44;;;;;;;1.23;0.70;;;26.00;27.40;;;;;;5091928;28;20378;-65
2021/03/26 11:28:28;;;;;;;1.65;0.77;;;26.10;27.50;;;;;;5090655;28;20390;-60
2021/03/26 11:31:32;;;;;;;2.65;0.70;;;26.10;27.50;;;;;;5090288;28;20945;-63
2021/03/26 11:34:18;;;;;;;2.60;0.80;;;26.10;27.50;;;;;;5060686;28;20386;-60
2021/03/26 11:36:47;;;;;;;3.05;1.00;;;26.20;27.50;;;;;;5088702;28;20401;-66
2021/03/26 11:39:39;;;;;;;6.05;1.10;;;26.20;27.50;;;;;;5086852;28;20380;-60
2021/03/26 11:42:07;;;;;;;9.73;1.20;;;26.20;27.80;;;;;;5085292;28;20490;-60
2021/03/26 11:45:02;;;;;;;8.32;1.20;;;26.30;27.70;;;;;;5081751;28;20398;-60
2021/03/26 11:47:31;;;;;;;4.53;1.02;;;26.40;27.70;;;;;;5084843;28;20510;-60
2021/03/26 11:50:03;;;;;;;5.28;1.30;;;26.40;28.20;;;;;;5079669;28;20409;-60
2021/03/26 11:52:41;;;;;;;5.88;1.30;;;26.40;27.50;;;;;;5081692;28;20397;-60
2021/03/26 11:55:17;;;;;;;5.97;1.20;;;26.40;27.30;;;;;;5087209;28;20431;-60
2021/03/26 11:57:52;;;;;;;5.95;1.30;;;26.50;27.40;;;;;;5087849;28;20386;-59
2021/03/26 12:00:43;;;;;;;6.28;1.67;;;26.50;27.30;;;;;;5087575;28;20441;-60
2021/03/26 12:03:18;;;;;;;6.90;1.35;;;26.50;27.10;;;;;;5084948;28;20424;-60
2021/03/26 12:06:02;;;;;;;5.50;1.40;;;26.50;27.80;;;;;;5089428;28;20866;-60
2021/03/26 12:08:54;;;;;;;9.05;1.90;;;26.60;28.10;;;;;;5088427;28;20393;-60
2021/03/26 12:11:23;;;;;;;6.30;1.70;;;26.70;28.20;;;;;;5087289;28;20382;-61
2021/03/26 12:14:10;;;;;;;6.00;1.48;;;26.70;28.10;;;;;;5089964;28;20386;-60
2021/03/26 12:16:53;;;;;;;5.90;1.52;;;26.80;28.90;;;;;;5089104;28;20381;-60
2021/03/26 12:19:22;;;;;;;9.02;1.55;;;26.80;28.00;;;;;;5089910;28;20933;-61
2021/03/26 12:22:19;;;;;;;6.20;1.45;;;26.90;28.30;;;;;;5088724;28;20468;-60
2021/03/26 12:25:18;;;;;;;6.63;1.27;;;27.00;28.50;;;;;;5087569;28;20390;-60
2021/03/26 12:27:53;;;;;;;4.67;1.30;;;27.00;28.60;;;;;;5087711;28;20481;-61
2021/03/26 12:30:25;;;;;;;5.38;1.30;;;27.10;29.50;;;;;;5088477;28;20397;-60
2021/03/26 12:33:18;;;;;;;3.90;1.10;;;27.10;28.40;;;;;;5088155;28;20440;-60
2021/03/26 12:36:16;;;;;;;4.88;1.20;;;27.20;28.40;;;;;;5087656;28;20385;-60
2021/03/26 12:39:04;;;;;;;5.95;1.05;;;27.30;28.70;;;;;;5085504;28;20409;-60
2021/03/26 12:41:48;;;;;;;5.30;1.10;;;27.30;28.40;;;;;;5088476;28;20877;-61
2021/03/26 12:44:37;;;;;;;3.15;1.08;;;27.40;28.20;;;;;;5087617;28;20751;-60
2021/03/26 12:47:09;;;;;;;4.95;1.20;;;27.40;28.20;;;;;;5091321;28;20385;-60
2021/03/26 12:49:51;;;;;;;2.88;1.00;;;27.40;28.00;;;;;;5093370;28;20386;-60
2021/03/26 12:52:33;;;;;;;5.05;1.05;;;27.40;28.30;;;;;;5093189;28;20382;-60
2021/03/26 12:55:14;;;;;;;4.60;1.10;;;27.30;28.30;;;;;;5093289;28;20948;-60
2021/03/26 12:58:00;;;;;;;5.75;1.33;;;27.40;27.90;;;;;;5090486;28;20870;-59
2021/03/26 13:00:40;;;;;;;10.15;1.45;;;27.40;27.80;;;;;;5091241;28;20414;-59
2021/03/26 13:03:16;;;;;;;6.53;1.52;;;27.40;27.80;;;;;;5091339;28;20382;-59
2021/03/26 13:05:46;;;;;;;4.43;1.10;;;27.50;27.70;;;;;;5088560;28;20468;-63
2021/03/26 13:08:21;;;;;;;3.73;1.00;;;27.70;27.60;;;;;;5091052;28;20485;-59
2021/03/26 13:11:08;;;;;;;4.28;1.15;;;27.90;27.60;;;;;;5092778;28;20477;-60
2021/03/26 13:13:37;;;;;;;4.30;1.10;;;28.00;27.60;;;;;;5091856;28;20404;-59
2021/03/26 13:16:22;;;;;;;2.90;0.95;;;28.00;27.50;;;;;;5093034;28;20737;-61
2021/03/26 13:19:02;;;;;;;2.30;0.90;;;28.20;27.60;;;;;;5088804;28;20807;-60
2021/03/26 13:21:35;;;;;;;2.97;1.00;;;28.20;27.40;;;;;;5090606;28;20445;-66
2021/03/26 13:24:13;;;;;;;3.22;1.00;;;28.30;27.40;;;;;;5089936;28;20389;-66
2021/03/26 13:26:41;;;;;;;3.58;1.00;;;28.40;27.40;;;;;;5090941;28;20404;-59
2021/03/26 13:29:27;;;;;;;1.93;0.70;;;28.40;27.50;;;;;;5091991;28;21017;-66
2021/03/26 13:31:56;;;;;;;3.80;1.25;;;28.40;27.40;;;;;;5092325;28;20370;-63
2021/03/26 13:34:24;;;;;;;4.65;1.38;;;28.40;27.10;;;;;;5091537;28;20397;-65
2021/03/26 13:36:57;;;;;;;4.00;1.00;;;28.30;27.10;;;;;;5091603;28;20389;-60
2021/03/26 13:39:32;;;;;;;2.38;1.00;;;28.20;27.20;;;;;;5090628;28;20458;-64
2021/03/26 13:42:07;;;;;;;2.88;0.80;;;28.20;27.20;;;;;;5092809;28;20390;-65
2021/03/26 13:44:38;;;;;;;2.80;0.88;;;28.10;27.20;;;;;;5092301;28;20427;-63
2021/03/26 13:47:09;;;;;;;3.17;0.90;;;28.10;27.20;;;;;;5091816;28;20405;-65
2021/03/26 13:49:44;;;;;;;2.97;0.70;;;28.10;27.10;;;;;;5089641;28;20390;-67